Tuesday, April 24, 2018, 9:05 PM EDT
Back to Local

KART, Watertown International Airport

Location: Dexter, NY, United States Lat: 43.983
Local Time: 9:05 PM EDT ( 1:05 GMT) Lon: -76.033
Time Zone: US/Eastern Elev: 324 ft

Show me the last for .
Show Decoded

2018-04-24 19:56 METAR KART 242356Z AUTO 00000KT 10SM CLR 16/00 A3007 RMK AO2 SLP180 T01560000
                 10200 20139 56015 =
2018-04-24 18:56 METAR KART 242256Z AUTO 00000KT 10SM CLR 18/M02 A3008 RMK AO2 SLP183 T01781017 =
2018-04-24 17:56 METAR KART 242156Z AUTO 00000KT 10SM CLR 18/M02 A3010 RMK AO2 SLP190 T01781022 =
2018-04-24 16:56 METAR KART 242056Z AUTO 31005KT 10SM CLR 18/M01 A3011 RMK AO2 SLP195 T01781011
                 56019 =
2018-04-24 15:56 METAR KART 241956Z AUTO 28007KT 10SM CLR 19/M02 A3013 RMK AO2 SLP199 T01891017 =
2018-04-24 14:56 METAR KART 241856Z AUTO 26010KT 10SM CLR 19/M04 A3014 RMK AO2 SLP205 T01941039 =
2018-04-24 13:56 METAR KART 241756Z AUTO 27012KT 10SM CLR 19/M02 A3017 RMK AO2 SLP213 T01891022
                 10200 20144 56024 =
2018-04-24 12:56 METAR KART 241656Z AUTO VRB03KT 10SM CLR 19/M01 A3019 RMK AO2 SLP221 T01891011 =
2018-04-24 11:56 METAR KART 241556Z AUTO 21008G19KT 10SM CLR 19/00 A3021 RMK AO2 SLP229 T01940000
                 =
2018-04-24 10:56 METAR KART 241456Z AUTO 19008KT 10SM CLR 18/01 A3024 RMK AO2 SLP240 T01830011
                 58006 =
2018-04-24 09:56 METAR KART 241356Z AUTO 21013G22KT 10SM CLR 17/02 A3026 RMK AO2 SLP245 T01670017
                 =
2018-04-24 08:56 METAR KART 241256Z AUTO 20016G22KT 10SM CLR 16/03 A3026 RMK AO2 SLP246 T01560033
                 =
2018-04-24 07:56 METAR KART 241156Z AUTO 19008G17KT 10SM CLR 14/02 A3026 RMK AO2 SLP245 T01440017
                 10144 20117 53008 =
2018-04-24 06:56 METAR KART 241056Z AUTO 19006KT 10SM CLR 12/01 A3025 RMK AO2 SLP242 T01220006 =
2018-04-24 05:56 METAR KART 240956Z AUTO 18007KT 10SM CLR 12/01 A3024 RMK AO2 SLP238 T01170006 =
2018-04-24 04:56 METAR KART 240856Z AUTO 17007KT 10SM CLR 13/00 A3024 RMK AO2 SLP237 T01280000
                 53002 =
2018-04-24 03:56 METAR KART 240756Z AUTO 19006KT 10SM CLR 13/00 A3023 RMK AO2 SLP235 T01330000 =
2018-04-24 02:56 METAR KART 240656Z AUTO 18008KT 10SM CLR 14/M01 A3022 RMK AO2 SLP232 T01391006 =
2018-04-24 01:56 METAR KART 240556Z AUTO 18006KT 10SM CLR 14/M02 A3023 RMK AO2 SLP235 T01391017
                 10139 20050 57003 =
2018-04-24 00:56 METAR KART 240456Z AUTO 17006KT 10SM CLR 13/M04 A3023 RMK AO2 SLP236 T01331039
                 401891061 =
2018-04-23 23:56 METAR KART 240356Z AUTO 16007KT 10SM CLR 13/M04 A3024 RMK AO2 SLP238 T01331039 =
2018-04-23 22:56 METAR KART 240256Z AUTO 13003KT 10SM CLR 07/M02 A3024 RMK AO2 SLP240 T00671022
                 58006 =
2018-04-23 21:56 METAR KART 240156Z AUTO 11005KT 10SM CLR 08/M02 A3025 RMK AO2 SLP243 T00781022 =

Support USWX by starting your Amazon purchase here.